Hovedside
METAR-TAF:

METAR-TAF

Lufthavner :

Beni Mellal, Marokko

breddegrad: 32-24-00N, lengdegrad: 06-19-00W, høyde over havet: 518 m

Gjeldene værobservasjon

Denne rapporten ble laget for 1 time og 5 minutter siden, klokken 09:00 UTC
Vind 6 kt fra Vest-sørvest
Temperatur 11°C
Luftfuktighet 100%
Trykk 1019 hPa
Sikt 10 km eller mer
ingen skyer under 1500 m og ingen bygeskyer

METAR: GMMD 260900Z 24006KT CAVOK 11/11 Q1019 NOSIG

Tid: 11:05 (10:05 UTC)


TAF: fraværende

Værobservasjoner og værvarsel for over 4000 flyplasser (METAR- og TAF-rapporter).

Tilgjengelige stasjoner er representert av de røde og gule prikkene på kartet.

Hold musepekeren over prikken for å se navnet på stasjonen.

Klikk så for å se værobservasjoner og -varsler.

For å forandre kartet kan du klikke på den grønne knappen med svart kryss for å zoome inn, på den grønne knappen med strek for å zoome ut, eller på de grønne pilene for å se tilstøtende kart.


METAR-TAF: